Hlavní strana
METAR-TAF:

METAR-TAF

Letiště :

Kuvajt, Kuvajt

zeměpisná šířka: 29-13N, zeměpisná délka: 047-59E, výška: 55 m

Aktuální stav počasí

Zpráva byla vytvořena před 55 minutami, v 08:00 UTC
Severní vítr 15 kt
Teplota 44°C
Vlhkost vzduchu 14%
Tlak 997 hPa
Viditelnost 10 km a více
Žádná oblačnost pod 1500 m, nevyskytují se cumulonimby.

METAR: OKBK 160800Z 35015KT CAVOK 44/11 Q0997 NOSIG

Čas: 11:55 (08:55 UTC)

Předpověď počasí

Zpráva byla vytvořena před 4 hodinami a 10 minutami, v 04:45 UTC
Předpověď platná od 16 v 06 UTC do 17 v 12 UTC
Severoseverozápadní vítr 12 kt s nárazy do 25 kt
Viditelnost: 7000 m
Jasno

TAF: OKBK 160445Z 1606/1712 34012G25KT 7000 SKC

Stav a předpovědi počasí z více než 4 000 letišť (zprávy METAR a TAF).

Červené a žluté tečky na mapě představují dostupné meteorologické stanice.

Když kurzor umístíte na tečku, zobrazí se název stanice.

Pak kliknutím zobrazíte stav a předpověď počasí.

Chcete-li změnit mapu, kliknutím na zelené tlačítko se znaménkem +mapu přiblížíte, kliknutím na zelené tlačítko se znaménkem – mapu oddálíte a kliknutím na zelené šipky přejdete na sousední mapy.


METAR-TAF: